Barnesville, North Carolina
Current Conditions -  °F | °C
As of 11:54 AM on Tuesday 27 Jan 2015 (Local Time) from KLBT Reporting Station
Few Clouds Few Clouds  
Wind Chill: 37°   Ceiling: Unl
Heat Index: 43°   Visibility: 10mi
Dew Point: 24°   Wind: 12mph
Humidity: 47%   Direction: 340°NNW
Pressure: 29.83"   Gusts: NA
Location:  34.41°N, 79.05°W
Report Text: KLBT 271654Z AUTO 34010KT 10SM FEW038 06/M04 A2983 RMK AO2 SLP101 T00611044
Loading
Personal Weather Stations






























Interactive Weather Map New forecast layout! Learn more

10-Day Weather Forecast

Advertisements
Track Severe Weather on mobile